createdAt,value
2022-12-25T00:01:55.615Z,101540.28
2022-12-25T00:04:23.028Z,101539.09
2022-12-25T00:06:52.081Z,101548.06
2022-12-25T00:09:18.431Z,101544.28
2022-12-25T00:11:50.591Z,101533.47
2022-12-25T00:14:17.480Z,101531.19
2022-12-25T00:16:43.985Z,101531.75
2022-12-25T00:19:13.620Z,101527.94
2022-12-25T00:21:42.901Z,101534.56
2022-12-25T00:24:09.725Z,101528.03
2022-12-25T00:26:38.842Z,101528.34
2022-12-25T00:29:14.838Z,101531.41
2022-12-25T00:31:42.475Z,101531.84
2022-12-25T00:34:08.869Z,101520.34
2022-12-25T00:36:41.469Z,101522.44
2022-12-25T00:39:10.970Z,101521.22
2022-12-25T00:41:55.734Z,101521.41
2022-12-25T00:47:10.484Z,101514.81
2022-12-25T00:49:40.494Z,101521.34
2022-12-25T00:52:19.497Z,101530.44
2022-12-25T00:54:45.927Z,101525.66
2022-12-25T00:57:18.612Z,101527.06
2022-12-25T00:59:48.761Z,101527.59
2022-12-25T01:02:27.458Z,101524.59
2022-12-25T01:07:42.120Z,101530.53
2022-12-25T01:10:31.990Z,101530.41
2022-12-25T01:12:58.680Z,101526.44
2022-12-25T01:15:27.783Z,101530.44
2022-12-25T01:17:56.964Z,101534.59
2022-12-25T01:20:25.918Z,101541.47
2022-12-25T01:22:52.881Z,101544.81
2022-12-25T01:25:19.296Z,101538.72
2022-12-25T01:27:45.739Z,101539.69
2022-12-25T01:30:25.539Z,101544.81
2022-12-25T01:35:40.483Z,101554.41
2022-12-25T01:38:09.661Z,101547.66
2022-12-25T01:40:36.021Z,101540.06
2022-12-25T01:43:05.109Z,101542.13
2022-12-25T01:45:37.378Z,101536.34
2022-12-25T01:48:13.476Z,101535.75
2022-12-25T01:50:49.957Z,101530.09
2022-12-25T01:53:19.805Z,101529.53
2022-12-25T01:55:53.295Z,101529.09
2022-12-25T01:58:19.926Z,101544.19
2022-12-25T02:00:46.523Z,101549.56
2022-12-25T02:03:22.973Z,101553.13
2022-12-25T02:05:50.728Z,101551.47
2022-12-25T02:08:20.417Z,101545.94
2022-12-25T02:10:50.136Z,101540.00
2022-12-25T02:13:21.661Z,101546.44
2022-12-25T02:16:15.892Z,101539.38
2022-12-25T02:18:53.869Z,101533.81
2022-12-25T02:21:57.985Z,101544.66
2022-12-25T02:24:58.148Z,101550.25
2022-12-25T02:27:53.293Z,101540.06
2022-12-25T02:30:20.910Z,101533.19
2022-12-25T02:33:25.017Z,101539.47
2022-12-25T02:35:57.492Z,101533.00
2022-12-25T02:38:43.674Z,101537.38
2022-12-25T02:44:22.360Z,101547.44
2022-12-25T02:50:31.525Z,101529.69
2022-12-25T02:53:18.986Z,101530.63
2022-12-25T02:56:09.277Z,101528.03
2022-12-25T02:59:00.441Z,101525.88
2022-12-25T03:01:53.405Z,101523.56
2022-12-25T03:04:43.510Z,101518.28
2022-12-25T03:10:33.526Z,101492.94
2022-12-25T03:16:18.318Z,101480.31
2022-12-25T03:18:44.938Z,101479.47
2022-12-25T03:21:44.945Z,101479.91
2022-12-25T03:24:32.899Z,101473.63
2022-12-25T03:26:59.304Z,101470.38
2022-12-25T03:29:50.992Z,101464.06
2022-12-25T03:32:52.873Z,101482.41
2022-12-25T03:35:44.852Z,101476.78
2022-12-25T03:39:02.593Z,101482.53
2022-12-25T03:42:08.936Z,101482.69
2022-12-25T03:45:26.138Z,101478.56
2022-12-25T03:48:13.519Z,101484.63
2022-12-25T03:51:09.078Z,101482.13
2022-12-25T03:54:31.917Z,101482.81
2022-12-25T03:57:17.125Z,101483.91
2022-12-25T04:00:14.185Z,101486.66
2022-12-25T04:02:59.124Z,101472.75
2022-12-25T04:05:53.889Z,101477.19
2022-12-25T04:08:42.019Z,101468.19
2022-12-25T04:11:27.374Z,101461.97
2022-12-25T04:14:17.691Z,101461.81
2022-12-25T04:17:05.411Z,101462.34
2022-12-25T04:19:50.360Z,101456.41
2022-12-25T04:22:44.248Z,101461.50
2022-12-25T04:25:31.098Z,101467.94
2022-12-25T04:28:27.162Z,101478.38
2022-12-25T04:31:14.240Z,101476.72
2022-12-25T04:33:59.243Z,101487.44
2022-12-25T04:36:27.962Z,101481.50
2022-12-25T04:38:54.407Z,101478.22
2022-12-25T04:41:20.822Z,101477.50
2022-12-25T04:43:47.248Z,101479.56
2022-12-25T04:46:13.770Z,101476.38
2022-12-25T04:48:40.206Z,101474.84
2022-12-25T04:51:19.954Z,101473.34
2022-12-25T04:53:50.379Z,101464.09
2022-12-25T04:56:22.398Z,101466.25
2022-12-25T04:58:52.050Z,101471.03
2022-12-25T05:01:18.484Z,101474.72
2022-12-25T05:03:49.165Z,101462.88
2022-12-25T05:06:15.727Z,101445.13
2022-12-25T05:08:42.306Z,101441.94
2022-12-25T05:11:17.822Z,101450.16
2022-12-25T05:13:44.424Z,101459.88
2022-12-25T05:16:15.765Z,101465.22
2022-12-25T05:18:42.589Z,101449.00
2022-12-25T05:21:11.702Z,101445.00
2022-12-25T05:23:50.200Z,101438.09
2022-12-25T05:26:30.496Z,101434.69
2022-12-25T05:29:02.754Z,101428.03
2022-12-25T05:31:31.947Z,101432.44
2022-12-25T05:33:58.431Z,101429.13
2022-12-25T05:36:27.405Z,101419.78
2022-12-25T05:38:56.661Z,101414.56
2022-12-25T05:41:23.060Z,101416.22
2022-12-25T05:43:52.796Z,101410.28
2022-12-25T05:46:22.079Z,101413.16
2022-12-25T05:48:48.746Z,101431.41
2022-12-25T05:51:16.171Z,101414.22
2022-12-25T05:53:45.580Z,101416.72
2022-12-25T05:56:12.034Z,101420.00
2022-12-25T05:58:47.910Z,101414.69
2022-12-25T06:01:23.595Z,101423.31
2022-12-25T06:03:50.206Z,101426.66
2022-12-25T06:06:16.668Z,101417.84
2022-12-25T06:08:48.108Z,101413.34
2022-12-25T06:11:15.735Z,101418.06
2022-12-25T06:13:42.586Z,101410.94
2022-12-25T06:16:18.756Z,101392.53
2022-12-25T06:18:48.987Z,101399.28
2022-12-25T06:21:16.013Z,101393.78
2022-12-25T06:23:42.476Z,101387.78
2022-12-25T06:26:22.195Z,101391.91
2022-12-25T06:28:48.717Z,101396.16
2022-12-25T06:31:25.106Z,101397.44
2022-12-25T06:33:51.722Z,101397.03
2022-12-25T06:36:23.694Z,101398.44
2022-12-25T06:38:53.955Z,101397.09
2022-12-25T06:41:27.917Z,101395.75
2022-12-25T06:43:56.909Z,101384.78
2022-12-25T06:46:28.708Z,101385.22
2022-12-25T06:48:59.412Z,101369.97
2022-12-25T06:51:48.078Z,101374.69
2022-12-25T06:54:14.545Z,101381.16
2022-12-25T06:56:40.971Z,101375.81
2022-12-25T07:02:07.285Z,101368.28
2022-12-25T07:04:41.102Z,101359.34
2022-12-25T07:07:09.612Z,101353.72
2022-12-25T07:09:42.865Z,101350.81
2022-12-25T07:12:26.304Z,101358.13
2022-12-25T07:14:56.562Z,101361.03
2022-12-25T07:17:33.489Z,101362.16
2022-12-25T07:19:59.847Z,101361.88
2022-12-25T07:22:34.944Z,101364.75
2022-12-25T07:25:01.306Z,101380.09
2022-12-25T07:27:33.797Z,101379.56
2022-12-25T07:30:03.175Z,101369.63
2022-12-25T07:35:19.274Z,101383.41
2022-12-25T07:37:45.765Z,101383.25
2022-12-25T07:40:12.407Z,101383.81
2022-12-25T07:42:41.541Z,101371.44
2022-12-25T07:45:11.154Z,101372.81
2022-12-25T07:47:37.553Z,101385.47
2022-12-25T07:50:11.130Z,101381.88
2022-12-25T07:52:43.201Z,101400.88
2022-12-25T07:55:10.613Z,101398.13
2022-12-25T07:57:36.965Z,101400.63
2022-12-25T08:00:05.197Z,101386.44
2022-12-25T08:02:34.786Z,101386.81
2022-12-25T08:05:01.389Z,101393.19
2022-12-25T08:07:27.775Z,101393.03
2022-12-25T08:09:57.380Z,101399.50
2022-12-25T08:12:26.910Z,101400.88
2022-12-25T08:14:53.285Z,101403.63
2022-12-25T08:17:22.676Z,101408.59
2022-12-25T08:19:51.912Z,101408.16
2022-12-25T08:22:18.261Z,101420.28
2022-12-25T08:24:47.735Z,101425.94
2022-12-25T08:27:14.197Z,101423.06
2022-12-25T08:29:40.529Z,101423.47
2022-12-25T08:32:10.805Z,101419.63
2022-12-25T08:34:40.325Z,101419.75
2022-12-25T08:37:14.097Z,101415.50
2022-12-25T08:39:42.529Z,101414.09
2022-12-25T08:42:08.881Z,101416.88
2022-12-25T08:44:39.612Z,101403.09
2022-12-25T08:47:05.976Z,101394.84
2022-12-25T08:49:32.329Z,101389.75
2022-12-25T08:54:53.749Z,101379.00
2022-12-25T08:57:26.285Z,101380.09
2022-12-25T08:59:55.877Z,101389.88
2022-12-25T09:02:25.835Z,101383.13
2022-12-25T09:04:59.501Z,101383.25
2022-12-25T09:07:27.822Z,101384.09
2022-12-25T09:10:02.749Z,101389.47
2022-12-25T09:15:15.845Z,101375.81
2022-12-25T09:17:45.399Z,101378.56
2022-12-25T09:20:11.805Z,101399.50
2022-12-25T09:22:41.474Z,101401.13
2022-12-25T09:25:08.206Z,101401.13
2022-12-25T09:27:34.784Z,101381.75
2022-12-25T09:30:02.631Z,101388.75
2022-12-25T09:32:31.751Z,101402.53
2022-12-25T09:34:58.459Z,101407.34
2022-12-25T09:37:25.056Z,101414.09
2022-12-25T09:39:51.774Z,101411.91
2022-12-25T09:42:22.177Z,101416.59
2022-12-25T09:45:18.164Z,101408.03
2022-12-25T09:47:49.408Z,101392.63
2022-12-25T09:50:42.200Z,101392.06
2022-12-25T09:53:36.982Z,101391.53
2022-12-25T09:56:11.455Z,101383.25
2022-12-25T09:58:41.220Z,101390.00
2022-12-25T10:01:29.557Z,101391.63
2022-12-25T10:04:25.241Z,101375.56
2022-12-25T10:07:14.971Z,101369.75
2022-12-25T10:10:04.529Z,101371.97
2022-12-25T10:13:15.538Z,101383.25
2022-12-25T10:16:19.199Z,101379.38
2022-12-25T10:19:17.145Z,101369.34
2022-12-25T10:21:44.292Z,101369.06
2022-12-25T10:24:25.973Z,101367.44
2022-12-25T10:27:12.722Z,101367.28
2022-12-25T10:29:40.241Z,101362.34
2022-12-25T10:32:10.978Z,101353.94
2022-12-25T10:34:45.781Z,101357.25
2022-12-25T10:37:12.702Z,101354.06
2022-12-25T10:39:46.855Z,101346.22
2022-12-25T10:42:34.857Z,101343.75
2022-12-25T10:45:16.364Z,101348.97
2022-12-25T10:48:07.415Z,101325.56
2022-12-25T10:50:56.235Z,101341.28
2022-12-25T10:56:17.483Z,101314.41
2022-12-25T10:58:44.038Z,101310.28
2022-12-25T11:01:16.534Z,101303.53
2022-12-25T11:03:51.461Z,101303.53
2022-12-25T11:06:29.621Z,101299.13
2022-12-25T11:09:04.779Z,101297.22
2022-12-25T11:11:31.575Z,101287.44
2022-12-25T11:14:03.640Z,101292.53
2022-12-25T11:16:38.045Z,101279.59
2022-12-25T11:19:24.789Z,101276.28
2022-12-25T11:21:57.447Z,101273.13
2022-12-25T11:24:34.841Z,101268.88
2022-12-25T11:29:52.641Z,101261.81
2022-12-25T11:32:35.763Z,101265.28
2022-12-25T11:35:15.357Z,101242.41
2022-12-25T11:37:57.564Z,101234.44
2022-12-25T11:40:47.311Z,101229.06
2022-12-25T11:43:35.206Z,101219.94
2022-12-25T11:46:27.021Z,101212.50
2022-12-25T11:51:45.880Z,101212.59
2022-12-25T11:54:39.315Z,101214.94
2022-12-25T11:57:13.714Z,101212.47
2022-12-25T12:00:15.998Z,101219.47
2022-12-25T12:02:59.669Z,101221.28
2022-12-25T12:05:42.623Z,101223.34
2022-12-25T12:08:34.019Z,101220.19
2022-12-25T12:11:37.512Z,101210.16
2022-12-25T12:14:06.732Z,101222.41
2022-12-25T12:16:39.189Z,101228.34
2022-12-25T12:19:29.246Z,101208.09
2022-12-25T12:22:01.534Z,101208.91
2022-12-25T12:24:43.230Z,101197.63
2022-12-25T12:27:35.718Z,101193.75
2022-12-25T12:30:05.246Z,101194.56
2022-12-25T12:32:36.282Z,101193.19
2022-12-25T12:35:18.724Z,101191.56
2022-12-25T12:37:51.898Z,101186.63
2022-12-25T12:40:44.113Z,101176.28
2022-12-25T12:43:47.030Z,101165.00
2022-12-25T12:46:30.633Z,101168.59
2022-12-25T12:49:23.796Z,101167.09
2022-12-25T12:52:05.591Z,101181.81
2022-12-25T12:54:32.198Z,101179.50
2022-12-25T12:57:29.790Z,101179.63
2022-12-25T12:59:59.917Z,101178.94
2022-12-25T13:03:09.874Z,101181.41
2022-12-25T13:05:42.312Z,101168.34
2022-12-25T13:08:08.669Z,101170.94
2022-12-25T13:10:50.463Z,101162.41
2022-12-25T13:13:49.896Z,101146.56
2022-12-25T13:19:22.078Z,101139.00
2022-12-25T13:22:07.155Z,101130.22
2022-12-25T13:24:38.470Z,101133.63
2022-12-25T13:27:28.537Z,101133.78
2022-12-25T13:33:00.454Z,101130.22
2022-12-25T13:35:29.850Z,101120.69
2022-12-25T13:37:56.585Z,101113.00
2022-12-25T13:40:27.815Z,101119.06
2022-12-25T13:42:59.243Z,101115.63
2022-12-25T13:45:35.551Z,101112.19
2022-12-25T13:48:17.467Z,101107.91
2022-12-25T13:50:48.313Z,101110.38
2022-12-25T13:53:20.524Z,101114.97
2022-12-25T13:56:00.162Z,101118.38
2022-12-25T13:58:33.616Z,101119.50
2022-12-25T14:01:04.176Z,101103.94
2022-12-25T14:06:21.570Z,101101.34
2022-12-25T14:08:52.413Z,101097.88
2022-12-25T14:11:25.785Z,101108.34
2022-12-25T14:13:57.411Z,101096.94
2022-12-25T14:16:27.736Z,101109.88
2022-12-25T14:19:02.480Z,101109.72
2022-12-25T14:21:34.927Z,101112.19
2022-12-25T14:24:02.002Z,101111.38
2022-12-25T14:26:33.996Z,101113.16
2022-12-25T14:29:17.555Z,101114.28
2022-12-25T14:31:47.491Z,101100.34
2022-12-25T14:34:44.185Z,101102.16
2022-12-25T14:37:28.470Z,101112.50
2022-12-25T14:40:27.283Z,101102.03
2022-12-25T14:43:01.049Z,101090.72
2022-12-25T14:48:25.988Z,101086.63
2022-12-25T14:51:07.727Z,101086.47
2022-12-25T14:53:56.049Z,101070.78
2022-12-25T14:56:28.534Z,101082.88
2022-12-25T14:58:59.425Z,101078.78
2022-12-25T15:01:33.850Z,101087.56
2022-12-25T15:07:11.873Z,101093.63
2022-12-25T15:09:40.864Z,101089.34
2022-12-25T15:12:07.269Z,101097.19
2022-12-25T15:14:39.327Z,101081.41
2022-12-25T15:17:40.816Z,101083.72
2022-12-25T15:20:14.066Z,101091.72
2022-12-25T15:23:10.328Z,101097.88
2022-12-25T15:25:32.202Z,101103.81
2022-12-25T15:27:59.444Z,101090.88
2022-12-25T15:30:28.454Z,101091.72
2022-12-25T15:32:57.658Z,101082.75
2022-12-25T15:38:05.865Z,101092.22
2022-12-25T15:40:35.078Z,101092.22
2022-12-25T15:43:06.385Z,101086.84
2022-12-25T15:45:38.245Z,101074.06
2022-12-25T15:48:04.810Z,101076.38
2022-12-25T15:50:32.878Z,101070.06
2022-12-25T15:53:02.040Z,101067.28
2022-12-25T15:55:28.439Z,101067.28
2022-12-25T15:57:54.997Z,101071.53
2022-12-25T16:00:25.507Z,101068.94
2022-12-25T16:02:54.953Z,101061.91
2022-12-25T16:05:27.042Z,101051.59
2022-12-25T16:07:56.359Z,101044.84
2022-12-25T16:10:22.885Z,101054.50
2022-12-25T16:12:51.633Z,101059.75
2022-12-25T16:15:20.927Z,101062.34
2022-12-25T16:17:47.376Z,101067.59
2022-12-25T16:20:26.874Z,101073.31
2022-12-25T16:22:58.053Z,101071.53
2022-12-25T16:25:27.300Z,101070.44
2022-12-25T16:28:01.071Z,101077.16
2022-12-25T16:30:30.608Z,101068.47
2022-12-25T16:32:56.970Z,101070.16
2022-12-25T16:35:26.531Z,101053.47
2022-12-25T16:37:56.016Z,101050.03
2022-12-25T16:40:46.917Z,101048.25
2022-12-25T16:43:21.943Z,101047.41
2022-12-25T16:45:53.354Z,101032.69
2022-12-25T16:48:19.960Z,101017.28
2022-12-25T16:50:46.320Z,101018.38
2022-12-25T16:53:15.174Z,101037.81
2022-12-25T16:55:44.401Z,101037.81
2022-12-25T16:58:10.788Z,101041.28
2022-12-25T17:00:37.161Z,101048.28
2022-12-25T17:03:03.814Z,101036.69
2022-12-25T17:05:32.889Z,101031.63
2022-12-25T17:08:02.866Z,101043.91
2022-12-25T17:10:31.827Z,101034.53
2022-12-25T17:12:58.259Z,101026.19
2022-12-25T17:15:27.839Z,101028.94
2022-12-25T17:17:58.044Z,101029.75
2022-12-25T17:20:24.453Z,101032.50
2022-12-25T17:23:01.194Z,101034.31
2022-12-25T17:25:27.803Z,101042.28
2022-12-25T17:27:57.783Z,101037.34
2022-12-25T17:30:27.146Z,101043.56
2022-12-25T17:35:40.897Z,101041.22
2022-12-25T17:38:10.360Z,101031.59
2022-12-25T17:40:36.747Z,101025.69
2022-12-25T17:43:07.055Z,101029.28
2022-12-25T17:45:36.985Z,101027.63
2022-12-25T17:48:06.517Z,101033.69
2022-12-25T17:50:41.125Z,101039.19
2022-12-25T17:53:13.873Z,101039.34
2022-12-25T17:55:41.268Z,101041.41
2022-12-25T17:58:11.062Z,101045.81
2022-12-25T18:00:37.458Z,101047.47
2022-12-25T18:03:11.206Z,101043.06
2022-12-25T18:05:40.568Z,101033.56
2022-12-25T18:08:06.961Z,101026.72
2022-12-25T18:10:38.649Z,101025.88
2022-12-25T18:13:05.659Z,101016.91
2022-12-25T18:15:32.576Z,101014.59
2022-12-25T18:17:59.403Z,101016.09
2022-12-25T18:20:28.385Z,101016.53
2022-12-25T18:22:57.640Z,101013.34
2022-12-25T18:25:26.779Z,101011.69
2022-12-25T18:28:02.484Z,101011.16
2022-12-25T18:30:32.139Z,101019.97
2022-12-25T18:33:00.801Z,101020.09
2022-12-25T18:35:37.153Z,101027.81
2022-12-25T18:38:06.855Z,101032.09
2022-12-25T18:40:33.270Z,101027.81
2022-12-25T18:43:12.639Z,101017.75
2022-12-25T18:45:45.127Z,101025.44
2022-12-25T18:48:11.616Z,101029.63
2022-12-25T18:50:42.587Z,101042.84
2022-12-25T18:53:09.326Z,101037.47
2022-12-25T18:55:40.654Z,101033.19
2022-12-25T18:58:21.640Z,101030.97
2022-12-25T19:00:51.529Z,101022.28
2022-12-25T19:03:21.318Z,101026.03
2022-12-25T19:05:47.772Z,101019.97
2022-12-25T19:08:17.877Z,101017.22
2022-12-25T19:10:47.239Z,101015.56
2022-12-25T19:13:13.819Z,101026.03
2022-12-25T19:15:42.367Z,101029.63
2022-12-25T19:18:11.941Z,101018.19
2022-12-25T19:20:40.980Z,101018.88
2022-12-25T19:23:15.816Z,101007.72
2022-12-25T19:28:27.956Z,101013.66
2022-12-25T19:30:59.966Z,101013.09
2022-12-25T19:36:20.125Z,101011.31
2022-12-25T19:38:47.054Z,101015.72
2022-12-25T19:41:18.685Z,101018.34
2022-12-25T19:43:49.732Z,101028.09
2022-12-25T19:46:49.666Z,101031.53
2022-12-25T19:49:20.444Z,101036.91
2022-12-25T19:51:49.608Z,101036.78
2022-12-25T19:56:59.118Z,101042.00
2022-12-25T19:59:28.554Z,101045.59
2022-12-25T20:01:58.518Z,101034.16
2022-12-25T20:04:27.868Z,101036.63
2022-12-25T20:06:54.314Z,101044.31
2022-12-25T20:09:21.746Z,101040.88
2022-12-25T20:11:53.698Z,101039.94
2022-12-25T20:14:23.282Z,101045.31
2022-12-25T20:16:49.918Z,101043.34
2022-12-25T20:19:18.788Z,101034.72
2022-12-25T20:21:47.955Z,101040.59
2022-12-25T20:24:14.458Z,101039.78
2022-12-25T20:26:47.653Z,101045.69
2022-12-25T20:29:15.502Z,101046.38
2022-12-25T20:31:44.955Z,101036.75
2022-12-25T20:34:15.095Z,101046.09
2022-12-25T20:36:41.528Z,101035.78
2022-12-25T20:39:16.319Z,101033.88
2022-12-25T20:41:42.951Z,101037.16
2022-12-25T20:44:13.706Z,101044.03
2022-12-25T20:46:43.310Z,101037.03
2022-12-25T20:49:10.120Z,101038.66
2022-12-25T20:51:43.976Z,101037.69
2022-12-25T20:54:10.937Z,101049.81
2022-12-25T20:56:43.504Z,101040.28
2022-12-25T20:59:11.733Z,101043.75
2022-12-25T21:01:40.632Z,101041.97
2022-12-25T21:04:12.910Z,101047.88
2022-12-25T21:06:45.025Z,101051.28
2022-12-25T21:09:18.679Z,101050.50
2022-12-25T21:11:45.055Z,101060.25
2022-12-25T21:14:14.002Z,101050.59
2022-12-25T21:16:40.588Z,101046.91
2022-12-25T21:19:07.201Z,101053.75
2022-12-25T21:21:38.171Z,101062.44
2022-12-25T21:24:04.728Z,101058.03
2022-12-25T21:26:31.832Z,101055.28
2022-12-25T21:29:03.356Z,101052.53
2022-12-25T21:31:30.755Z,101061.16
2022-12-25T21:34:05.003Z,101061.03
2022-12-25T21:36:34.661Z,101081.66
2022-12-25T21:39:08.186Z,101092.81
2022-12-25T21:41:39.303Z,101084.00
2022-12-25T21:44:09.175Z,101086.47
2022-12-25T21:46:38.764Z,101090.28
2022-12-25T21:49:05.489Z,101089.03
2022-12-25T21:51:54.449Z,101092.31
2022-12-25T21:54:23.803Z,101085.00
2022-12-25T21:56:53.210Z,101088.47
2022-12-25T21:59:25.300Z,101088.16
2022-12-25T22:01:52.789Z,101082.78
2022-12-25T22:04:22.445Z,101090.34
2022-12-25T22:07:10.385Z,101094.16
2022-12-25T22:09:37.186Z,101100.06
2022-12-25T22:12:32.005Z,101096.63
2022-12-25T22:15:08.823Z,101091.09
2022-12-25T22:17:59.168Z,101094.53
2022-12-25T22:20:27.038Z,101097.84
2022-12-25T22:22:54.431Z,101094.25
2022-12-25T22:25:24.693Z,101105.56
2022-12-25T22:27:55.935Z,101104.41
2022-12-25T22:30:27.329Z,101108.03
2022-12-25T22:32:58.224Z,101106.19
2022-12-25T22:35:27.366Z,101103.59
2022-12-25T22:37:54.237Z,101087.88
2022-12-25T22:40:24.731Z,101085.28
2022-12-25T22:42:55.626Z,101085.94
2022-12-25T22:45:25.515Z,101072.88
2022-12-25T22:47:54.215Z,101062.69
2022-12-25T22:50:20.788Z,101072.19
2022-12-25T22:52:49.646Z,101081.84
2022-12-25T22:55:21.052Z,101060.06
2022-12-25T22:57:50.996Z,101063.38
2022-12-25T23:00:17.775Z,101073.16
2022-12-25T23:02:44.436Z,101075.94
2022-12-25T23:05:10.981Z,101081.16
2022-12-25T23:07:42.182Z,101095.88
2022-12-25T23:10:12.094Z,101081.00
2022-12-25T23:13:12.267Z,101083.63
2022-12-25T23:15:38.736Z,101081.41
2022-12-25T23:18:26.354Z,101073.25
2022-12-25T23:21:19.426Z,101060.84
2022-12-25T23:24:10.685Z,101071.31
2022-12-25T23:26:39.848Z,101052.84
2022-12-25T23:29:25.029Z,101038.63
2022-12-25T23:31:56.043Z,101055.00
2022-12-25T23:34:25.576Z,101051.56
2022-12-25T23:36:51.948Z,101062.88
2022-12-25T23:39:27.959Z,101073.88
2022-12-25T23:41:54.495Z,101084.03
2022-12-25T23:44:21.511Z,101088.00
2022-12-25T23:46:52.895Z,101084.41
2022-12-25T23:49:26.276Z,101084.53
2022-12-25T23:51:56.676Z,101078.19
2022-12-25T23:54:29.828Z,101077.75
2022-12-25T23:56:59.822Z,101092.31
2022-12-25T23:59:30.397Z,101091.38
